EW2458 Weather Reports


Display with metric or nautical units.
time (UTC)temp
F
wind
direction
speed
MPH
gust
MPH
rain 1hr
in
rain 24hr
in
rain mn
in
humidity
%
barometer
mb
20180922125717 72 109 0.0 0.0 0.00 0.32 0.01 98 1017.3
20180922124215 72 110 0.0 0.0 0.00 0.32 0.01 98 1017.5
20180922122716 71 131 0.0 0.0 0.00 0.32 0.01 98 1017.5
20180922121215 71 146 0.0 0.0 0.00 0.32 0.01 98 1017.4
20180922115713 71 124 0.0 0.0 0.00 0.32 0.01 98 1017.4
20180922114211 71 325 0.0 0.0 0.00 0.32 0.01 98 1017.3
20180922112711 71 326 0.0 0.0 0.00 0.32 0.01 98 1017.2
20180922111214 71 321 0.0 0.0 0.00 0.32 0.01 98 1017.1
20180922105710 71 147 0.0 0.0 0.00 0.32 0.01 98 1017.2
20180922104210 71 159 0.0 0.0 0.00 0.32 0.01 98 1017.2
20180922102711 71 163 0.0 0.0 0.00 0.32 0.01 98 1017.1
20180922101210 71 160 0.0 0.0 0.00 0.32 0.01 98 1017.0
20180922095706 71 134 0.0 0.0 0.00 0.32 0.01 97 1016.9
20180922094207 71 134 0.0 0.0 0.00 0.32 0.01 97 1016.8
20180922092707 71 134 0.0 0.0 0.00 0.32 0.01 97 1016.7
20180922091204 71 134 0.0 0.0 0.00 0.32 0.01 97 1016.6
20180922085707 72 140 0.0 0.0 0.00 0.32 0.01 97 1016.8
20180922084203 72 277 0.0 0.0 0.00 0.32 0.01 97 1017.0
20180922082701 72 277 0.0 0.0 0.00 0.32 0.01 97 1017.2
20180922081202 72 299 0.0 0.0 0.00 0.32 0.01 97 1017.1
20180922075702 72 300 0.0 0.0 0.00 0.32 0.01 97 1017.0
20180922074159 71 288 0.0 0.0 0.00 0.32 0.01 97 1016.9
20180922072658 72 58 0.0 0.0 0.00 0.32 0.01 96 1016.6
20180922071300 72 101 0.0 0.0 0.00 0.32 0.01 96 1016.6
20180922065655 72 109 0.0 0.0 0.01 0.32 0.01 96 1016.6
20180922064152 72 120 0.0 0.0 0.01 0.32 0.01 96 1016.8
20180922062649 73 136 0.0 0.0 0.01 0.32 0.01 95 1017.0
20180922061146 73 86 0.0 0.0 0.01 0.32 0.01 94 1017.2
20180922055645 74 289 0.0 0.0 0.00 0.31 0.00 93 1017.5
20180922054142 73 249 0.0 0.0 0.00 0.31 0.00 94 1018.0
20180922052639 73 285 0.0 0.0 0.00 0.31 0.00 95 1018.0
20180922051135 73 240 0.0 0.0 0.00 0.31 0.00 95 1017.8
20180922045633 72 131 0.0 0.0 0.00 0.31 0.31 95 1017.7
20180922044131 73 126 0.0 0.0 0.00 0.31 0.31 95 1017.8
20180922042634 73 140 0.0 0.0 0.00 0.31 0.31 95 1017.8
20180922041129 73 141 0.0 0.0 0.00 0.31 0.31 93 1017.8
20180922035629 74 138 0.0 0.0 0.00 0.31 0.31 93 1017.7
20180922034128 73 103 0.0 0.0 0.00 0.31 0.31 93 1017.8
20180922032630 73 134 0.0 0.0 0.00 0.31 0.31 94 1017.6
20180922031126 73 139 0.0 0.0 0.00 0.31 0.31 94 1017.6
20180922025626 73 339 0.0 0.0 0.00 0.31 0.31 94 1017.6
20180922024125 74 68 0.0 0.0 0.00 0.31 0.31 93 1017.5
20180922022626 74 84 0.0 0.0 0.00 0.31 0.31 91 1017.0
20180922021123 75 88 0.0 0.0 0.00 0.31 0.31 90 1016.9
20180922015623 75 96 0.0 0.0 0.00 0.31 0.31 90 1016.6
20180922014124 75 116 0.0 0.0 0.00 0.31 0.31 90 1016.7
20180922012621 74 72 0.0 0.0 0.00 0.31 0.31 92 1016.7
20180922011119 74 129 0.0 0.0 0.00 0.31 0.31 92 1016.7
20180922005619 74 129 0.0 0.0 0.00 0.31 0.31 92 1016.8
20180922004117 75 84 0.0 0.0 0.00 0.31 0.31 90 1016.7
20180922002616 76 88 0.0 0.0 0.00 0.31 0.31 87 1016.7
20180922001115 76 139 0.0 0.0 0.00 0.31 0.31 86 1016.6
20180921235715 76 65 0.0 0.0 0.00 0.31 0.31 86 1016.2
20180921234113 76 109 0.0 1.0 0.00 0.31 0.31 86 1015.8
20180921232614 77 122 0.0 2.0 0.00 0.31 0.31 84 1016.0
20180921231112 77 261 0.0 0.0 0.00 0.31 0.31 82 1015.7
20180921225610 77 262 0.0 0.0 0.00 0.31 0.31 82 1015.6
20180921224112 77 163 0.0 0.0 0.00 0.31 0.31 81 1015.3
20180921222610 78 285 0.0 0.0 0.00 0.31 0.31 79 1015.6
20180921221104 79 295 5.0 16.0 0.00 0.31 0.31 75 1015.5
20180921215604 85 271 9.0 14.0 0.00 0.31 0.31 66 1015.3
20180921214103 87 200 0.0 0.0 0.00 0.31 0.31 66 1015.0
20180921212604 87 257 0.0 0.0 0.00 0.31 0.31 68 1015.0
20180921211100 87 177 0.0 0.0 0.00 0.31 0.31 68 1014.7
20180921205558 87 139 0.0 0.0 0.00 0.31 0.31 69 1014.6
20180921204055 86 127 0.0 4.0 0.00 0.31 0.31 73 1014.8
20180921202554 85 129 0.0 0.0 0.00 0.31 0.31 74 1014.8
20180921201054 84 108 0.0 0.0 0.00 0.31 0.31 75 1015.0
20180921195550 83 173 0.0 0.0 0.00 0.31 0.31 77 1015.5
20180921194046 81 158 0.0 0.0 0.00 0.31 0.31 84 1015.8
20180921192540 77 140 0.0 0.0 0.00 0.31 0.31 96 1016.0
20180921191037 75 131 0.0 1.0 0.00 0.31 0.31 97 1016.3
20180921185539 74 89 0.0 0.0 0.00 0.31 0.31 97 1016.8
20180921184534 74 97 0.0 1.0 0.00 0.31 0.31 97 1017.0
20180921180116 73 92 0.0 0.0 0.00 0.31 0.31 98 1018.1
20180921174625 73 142 0.0 0.0 0.03 0.31 0.31 98 1018.2
20180921173128 72 124 0.0 0.0 0.16 0.31 0.31 98 1018.3
20180921171613 72 128 0.0 1.0 0.16 0.31 0.31 98 1018.3
20180921170132 71 125 0.0 5.0 0.19 0.31 0.31 97 1018.4
20180921164551 71 142 1.0 8.0 0.26 0.28 0.28 97 1018.6
20180921163049 72 262 0.0 1.0 0.14 0.15 0.15 97 1019.3
20180921161547 71 124 0.0 2.0 0.14 0.15 0.15 96 1018.8
20180921160121 71 97 0.0 11.0 0.11 0.12 0.12 93 1019.0
20180921154556 74 274 0.0 0.0 0.01 0.02 0.02 88 1019.6
20180921153044 74 108 0.0 0.0 0.00 0.01 0.01 88 1018.6
20180921151547 73 83 0.0 0.0 0.00 0.01 0.01 90 1018.6
20180921150059 73 105 0.0 0.0 0.00 0.01 0.01 89 1018.3
20180921144609 73 18 0.0 0.0 0.00 0.01 0.01 89 1018.5
20180921143048 73 123 0.0 4.0 0.00 0.01 0.01 87 1018.5
20180921141532 74 87 0.0 2.0 0.00 0.01 0.01 84 1018.5
20180921140027 75 112 0.0 2.0 0.01 0.01 0.01 82 1018.4
20180921134554 75 193 0.0 0.0 0.01 0.01 0.01 80 1018.4
20180921133024 75 101 0.0 0.0 0.01 0.01 0.01 78 1018.3
20180921131525 76 110 0.0 3.0 0.01 0.01 0.01 77 1018.2
20180921130033 78 165 0.0 4.0 0.00 0.00 0.00 72 1018.4